Terminal Aerodrome Forecast
Issued by NWS

Home | Current Version | Previous Version | Graphics & Text | Print | Product List | Glossary On
Versions: 1 2 3 4 5 6 7 8 9 10 11 12 13 14 15 16 17 18 19 20 21 22 23 24 25 26 27 28 29 30 31 32 33 34 35 36 37 38
000
FTUS43 KGRB 221100 RRA
TAFRHI
TAF
KRHI 221146Z 2212/2312 22010KT 3SM BR OVC006
     FM221400 22007KT 4SM BR OVC004
     FM222100 22005KT 6SM BR OVC008
     FM230300 16005KT 3SM -DZ BR OVC005
     FM230900 14005KT 2SM -RA BR OVC002=

USA.gov is the U.S. government's official web portal to all federal, state and local government web resources and services.